Time;durP1;ratioP1;P1;durP2;ratioP2;P2;SDS_P1;SDS_P2;PMS_P1;PMS_P2;Temp;Humidity;BMP_temperature;BMP_pressure;BME280_temperature;BME280_humidity;BME280_pressure;Samples;Min_cycle;Max_cycle;Signal;HPM_P1;HPM_P2
2022/06/19 00:02:06;;;;;;;17.98;2.67;;;;;;;17.73;68.43;101094.56;20938433;28;20052;-66
2022/06/19 00:12:27;;;;;;;18.58;2.67;;;;;;;17.62;69.17;101044.56;20943025;28;20048;-66
2022/06/19 00:22:49;;;;;;;16.80;2.67;;;;;;;17.60;68.51;101020.16;20940289;28;20369;-66
2022/06/19 00:33:11;;;;;;;22.60;2.75;;;;;;;17.55;69.71;100996.00;20937029;28;20041;-66
2022/06/19 00:43:52;;;;;;;20.50;3.05;;;;;;;17.44;74.94;100981.16;20928377;28;20058;-66
2022/06/19 00:54:19;;;;;;;20.20;3.00;;;;;;;17.24;71.62;101002.34;20944977;28;20055;-67
2022/06/19 01:04:48;;;;;;;18.00;3.00;;;;;;;17.27;72.10;101009.97;20939937;28;20041;-67
2022/06/19 01:15:15;;;;;;;22.15;2.80;;;;;;;17.28;70.45;101006.38;20932919;28;20044;-66
2022/06/19 01:25:39;;;;;;;14.38;2.30;;;;;;;17.28;69.81;101003.72;20956379;28;20041;-66
2022/06/19 01:36:02;;;;;;;13.68;2.47;;;;;;;17.23;69.26;100932.16;20935290;28;20036;-67
2022/06/19 01:46:27;;;;;;;16.90;2.67;;;;;;;17.11;69.15;100937.69;20952287;28;20055;-66
2022/06/19 01:56:51;;;;;;;18.42;2.50;;;;;;;17.10;69.59;100899.97;20938306;28;20037;-66
2022/06/19 02:07:16;;;;;;;17.50;2.75;;;;;;;17.09;69.39;100886.97;20939975;28;20066;-67
2022/06/19 02:17:48;;;;;;;20.88;2.35;;;;;;;17.03;71.23;100882.22;20940038;28;20425;-66
2022/06/19 02:28:10;;;;;;;11.37;2.00;;;;;;;16.98;70.14;100931.84;20937022;28;20052;-66
2022/06/19 02:38:32;;;;;;;12.95;2.15;;;;;;;16.79;70.22;100961.63;20927404;28;20045;-66
2022/06/19 02:48:53;;;;;;;14.07;1.98;;;;;;;16.86;68.15;100933.78;20951188;28;20047;-66
2022/06/19 02:59:15;;;;;;;;;;;;;;;16.82;70.42;100885.00;20950286;28;20056;-65
2022/06/19 03:09:36;;;;;;;7.85;1.60;;;;;;;16.89;67.00;100870.28;20952119;28;19920;-66
2022/06/19 03:19:58;;;;;;;13.32;1.73;;;;;;;16.83;67.04;100848.94;20956687;28;20040;-65
2022/06/19 03:30:21;;;;;;;12.77;1.80;;;;;;;16.86;66.31;100832.88;20944949;28;20048;-65
2022/06/19 03:40:42;;;;;;;16.00;1.98;;;;;;;16.94;67.53;100818.03;20955053;28;20052;-65
2022/06/19 03:51:03;;;;;;;;;;;;;;;16.85;73.70;100800.47;20946638;28;20047;-66
2022/06/19 04:01:26;;;;;;;14.80;2.28;;;;;;;16.82;69.21;100884.16;20946983;28;19920;-65
2022/06/19 04:11:48;;;;;;;17.77;2.38;;;;;;;16.82;70.85;100874.47;20951632;28;20047;-64
2022/06/19 04:22:09;;;;;;;14.63;2.08;;;;;;;16.82;71.70;100900.78;20942024;28;20055;-65
2022/06/19 04:32:31;;;;;;;20.70;2.30;;;;;;;16.91;72.12;100884.16;20947685;28;20036;-67
2022/06/19 04:42:52;;;;;;;;;;;;;;;16.92;76.05;100933.22;20948763;28;20368;-65
2022/06/19 04:53:14;;;;;;;17.08;2.13;;;;;;;16.91;70.33;100936.84;20939679;28;19920;-65
2022/06/19 05:03:38;;;;;;;11.20;1.88;;;;;;;16.79;69.10;100911.59;20940032;28;20056;-66
2022/06/19 05:14:01;;;;;;;10.85;1.73;;;;;;;16.55;67.75;100944.50;20956244;28;20049;-66
2022/06/19 05:24:22;;;;;;;10.70;1.58;;;;;;;16.52;66.82;100887.72;20940963;28;20050;-67
2022/06/19 05:34:44;;;;;;;;;;;;;;;16.73;70.84;100792.81;20932168;28;20043;-67
2022/06/19 05:45:09;;;;;;;13.10;1.77;;;;;;;16.79;69.19;100711.47;20942542;28;19921;-65
2022/06/19 05:55:30;;;;;;;8.13;1.80;;;;;;;16.97;68.23;100670.28;20931165;28;20166;-66
2022/06/19 06:05:52;;;;;;;15.88;2.30;;;;;;;17.23;67.65;100642.31;20946369;28;20089;-66
2022/06/19 06:16:17;;;;;;;10.23;1.80;;;;;;;17.47;67.68;100679.53;20941700;28;20041;-66
2022/06/19 06:26:39;;;;;;;11.80;1.92;;;;;;;17.96;67.39;100664.13;20967099;28;20052;-65
2022/06/19 06:37:01;;;;;;;10.68;1.70;;;;;;;18.07;65.13;100615.56;20954685;28;20045;-66
2022/06/19 06:47:22;;;;;;;9.95;1.48;;;;;;;17.98;64.80;100707.00;20954131;28;20049;-66
2022/06/19 06:57:44;;;;;;;6.18;1.40;;;;;;;17.90;64.37;100758.88;20946826;28;20044;-66
2022/06/19 07:08:06;;;;;;;11.75;1.95;;;;;;;18.03;64.44;100776.00;20953969;28;20044;-67
2022/06/19 07:18:27;;;;;;;10.45;1.75;;;;;;;17.98;64.47;100798.53;20926090;28;20060;-66
2022/06/19 07:28:49;;;;;;;8.88;1.88;;;;;;;17.99;63.94;100811.56;20935900;28;20040;-67
2022/06/19 07:39:19;;;;;;;8.13;1.20;;;;;;;18.03;63.16;100843.78;20939713;28;20056;-67
2022/06/19 08:00:27;;;;;;;5.33;1.10;;;;;;;18.49;62.98;100832.13;20939220;28;20044;-64
2022/06/19 08:10:51;;;;;;;7.67;1.50;;;;;;;18.71;62.93;100852.84;20901618;28;1141265;-64
2022/06/19 08:21:13;;;;;;;3.90;1.10;;;;;;;18.57;64.10;100874.47;20932282;28;20063;-65
2022/06/19 08:31:34;;;;;;;8.75;1.70;;;;;;;18.37;64.63;100902.94;20919355;28;20060;-65
2022/06/19 08:42:10;;;;;;;6.10;1.40;;;;;;;18.24;64.67;100915.63;20917371;28;20628;-64
2022/06/19 08:52:41;;;;;;;5.32;1.00;;;;;;;17.87;65.56;100957.81;20931869;28;20081;-66
2022/06/19 09:03:17;;;;;;;4.95;1.00;;;;;;;17.56;66.60;100943.13;20918261;28;20055;-65
2022/06/19 09:14:04;;;;;;;7.93;1.25;;;;;;;17.58;67.85;100938.56;20932575;28;20040;-65
2022/06/19 09:24:44;;;;;;;8.20;1.20;;;;;;;17.71;67.85;100941.72;20914321;28;20048;-64
2022/06/19 09:35:15;;;;;;;2.20;1.05;;;;;;;17.70;66.27;100978.78;20922963;28;20071;-65
2022/06/19 09:45:40;;;;;;;9.70;1.23;;;;;;;17.62;67.20;100962.81;20927315;28;20047;-66
2022/06/19 09:56:16;;;;;;;6.13;1.05;;;;;;;17.50;71.38;100962.16;20912154;28;20040;-67
2022/06/19 10:06:47;;;;;;;6.65;1.10;;;;;;;17.34;72.59;100908.31;20907898;28;20045;-67
2022/06/19 10:17:23;;;;;;;7.17;1.47;;;;;;;17.34;78.12;100961.03;20922615;28;20037;-65
2022/06/19 10:28:00;;;;;;;4.03;1.30;;;;;;;17.14;76.95;100974.31;20920026;28;20404;-67
2022/06/19 10:38:59;;;;;;;5.72;1.20;;;;;;;17.04;77.90;100984.81;20913866;28;20099;-65
2022/06/19 10:49:57;;;;;;;4.03;1.33;;;;;;;17.25;81.04;100982.91;20922467;28;20049;-64
2022/06/19 11:00:18;;;;;;;9.63;4.43;;;;;;;17.25;76.25;100946.03;20919748;28;20107;-64
2022/06/19 11:10:44;;;;;;;8.48;1.80;;;;;;;17.10;77.44;100921.06;20938010;28;20671;-64
2022/06/19 11:21:13;;;;;;;4.57;1.40;;;;;;;17.12;80.19;100882.25;20923249;28;20052;-64
2022/06/19 11:31:37;;;;;;;3.63;1.50;;;;;;;17.29;76.46;100910.53;20934851;28;20045;-64
2022/06/19 11:42:37;;;;;;;5.38;1.27;;;;;;;17.49;82.52;100914.81;20936686;28;20040;-63
2022/06/19 11:53:05;;;;;;;6.72;1.35;;;;;;;17.25;77.97;100932.84;20952501;28;20463;-64
2022/06/19 12:03:28;;;;;;;6.55;1.25;;;;;;;17.16;77.30;100957.41;20941250;28;20063;-63
2022/06/19 12:13:53;;;;;;;7.75;1.50;;;;;;;16.78;77.86;101001.28;20931667;28;20071;-64
2022/06/19 12:24:22;;;;;;;4.63;1.08;;;;;;;16.45;79.11;101018.16;20927051;28;20059;-64
2022/06/19 12:34:46;;;;;;;7.88;1.55;;;;;;;16.42;79.74;101006.25;20937501;28;20045;-65
2022/06/19 12:45:14;;;;;;;9.32;1.67;;;;;;;16.30;80.79;101038.84;20955346;28;20048;-65
2022/06/19 12:55:47;;;;;;;10.40;1.95;;;;;;;16.36;77.42;101027.81;20946802;28;20081;-64
2022/06/19 13:06:56;;;;;;;8.80;1.85;;;;;;;16.63;85.35;100992.88;20923757;28;20048;-63
2022/06/19 13:17:36;;;;;;;6.97;1.42;;;;;;;16.51;77.92;101001.84;20871201;28;20044;-64
2022/06/19 13:28:16;;;;;;;5.35;1.23;;;;;;;16.71;79.43;101034.34;20940755;28;20527;-65
2022/06/19 13:39:02;;;;;;;10.45;1.52;;;;;;;16.78;75.88;101104.78;20930051;28;20048;-64
2022/06/19 13:49:46;;;;;;;6.93;1.15;;;;;;;16.81;77.59;101130.84;20938267;28;20040;-65
2022/06/19 14:00:23;;;;;;;6.85;1.58;;;;;;;16.69;73.52;101120.53;20919887;28;20560;-65
2022/06/19 14:10:55;;;;;;;7.72;1.30;;;;;;;16.74;74.57;101127.06;20913299;28;20076;-65
2022/06/19 14:21:26;;;;;;;5.38;1.40;;;;;;;16.80;72.43;101110.75;20911417;28;20499;-65
2022/06/19 14:31:49;;;;;;;6.07;0.98;;;;;;;16.98;72.31;101132.88;20921663;28;20041;-64
2022/06/19 14:42:11;;;;;;;7.05;0.98;;;;;;;17.10;70.78;101152.91;20918936;28;20052;-64
2022/06/19 14:53:02;;;;;;;5.47;1.10;;;;;;;17.52;69.58;101130.72;20936815;28;20045;-65
2022/06/19 15:03:42;;;;;;;7.55;1.33;;;;;;;17.58;68.58;101143.38;20928795;28;20063;-64
2022/06/19 15:14:16;;;;;;;5.70;1.08;;;;;;;17.63;67.95;101125.34;20936301;28;20037;-64
2022/06/19 15:25:03;;;;;;;2.40;0.77;;;;;;;17.69;69.44;101140.63;20948727;28;20041;-66
2022/06/19 15:35:36;;;;;;;5.55;0.93;;;;;;;17.83;69.24;101127.84;20913592;28;20393;-64
2022/06/19 15:46:19;;;;;;;2.83;0.82;;;;;;;17.80;68.58;101136.06;20938878;28;20051;-65
2022/06/19 15:56:45;;;;;;;4.28;0.95;;;;;;;17.65;68.02;101140.06;20919361;28;20049;-65
2022/06/19 16:07:24;;;;;;;3.58;0.88;;;;;;;17.52;68.85;101170.28;20935499;28;20067;-66
2022/06/19 16:18:23;;;;;;;5.07;1.00;;;;;;;17.31;70.70;101171.31;20912524;28;20076;-65
2022/06/19 16:28:45;;;;;;;2.88;0.90;;;;;;;17.18;70.05;101134.63;20921720;28;20055;-65
2022/06/19 16:50:26;;;;;;;2.08;0.85;;;;;;;16.88;69.37;101237.34;20917817;28;20052;-64
2022/06/19 17:00:52;;;;;;;7.07;1.00;;;;;;;16.83;71.97;101165.81;20915917;28;20053;-64
2022/06/19 17:11:21;;;;;;;2.10;0.73;;;;;;;16.73;73.94;101112.25;20934379;28;20485;-65
2022/06/19 17:21:50;;;;;;;4.10;1.17;;;;;;;16.65;75.53;101077.03;20939532;28;20041;-65
2022/06/19 17:32:30;;;;;;;3.25;0.95;;;;;;;16.77;76.90;101089.94;20930219;28;20052;-64
2022/06/19 17:43:05;;;;;;;2.75;0.85;;;;;;;16.69;72.70;101084.50;20920653;28;20048;-64
2022/06/19 17:53:29;;;;;;;5.13;1.08;;;;;;;16.74;73.41;101100.72;20932714;28;20040;-63
2022/06/19 18:03:56;;;;;;;2.08;0.70;;;;;;;16.86;72.96;101118.13;20929769;28;20087;-64
2022/06/19 18:14:23;;;;;;;3.45;0.98;;;;;;;16.86;72.68;101090.97;20956829;28;20044;-62
2022/06/19 18:24:44;;;;;;;2.83;0.80;;;;;;;16.77;73.07;101129.44;20948402;28;20050;-67
2022/06/19 18:35:12;;;;;;;2.97;0.80;;;;;;;16.80;71.66;101159.97;20965448;28;20047;-67
2022/06/19 18:45:40;;;;;;;5.68;1.10;;;;;;;16.72;71.44;101118.50;20939150;28;20040;-67
2022/06/19 18:56:03;;;;;;;5.90;1.52;;;;;;;16.63;71.29;101164.00;20923636;28;20051;-68
2022/06/19 19:06:25;;;;;;;6.20;1.20;;;;;;;16.49;70.27;101172.22;20946475;28;20080;-68
2022/06/19 19:16:47;;;;;;;5.35;1.10;;;;;;;16.35;69.64;101168.22;20983877;28;20059;-68
2022/06/19 19:27:09;;;;;;;5.43;1.40;;;;;;;16.31;70.36;101151.03;20949372;28;20048;-67
2022/06/19 19:37:32;;;;;;;10.80;1.50;;;;;;;16.26;69.19;101185.59;20946906;28;20063;-69
2022/06/19 19:47:54;;;;;;;7.38;1.40;;;;;;;16.20;69.51;101195.78;20953671;28;20408;-69
2022/06/19 19:58:18;;;;;;;;;;;;;;;16.08;71.22;101204.66;20945170;28;20140;-69
2022/06/19 20:19:19;;;;;;;6.18;1.52;;;;;;;15.98;70.01;101187.97;20952271;28;20049;-68
2022/06/19 20:29:46;;;;;;;;;;;;;;;15.87;72.99;101186.22;20942985;28;20425;-68
2022/06/19 20:40:16;;;;;;;7.25;1.38;;;;;;;15.84;70.56;101202.22;20940916;28;19932;-71
2022/06/19 20:50:40;;;;;;;8.80;1.48;;;;;;;15.80;70.86;101197.34;20945202;28;20049;-70
2022/06/19 21:01:02;;;;;;;8.25;1.67;;;;;;;15.83;70.78;101229.47;20944913;28;20547;-71
2022/06/19 21:11:24;;;;;;;4.97;1.15;;;;;;;15.75;71.66;101163.53;20937871;28;20040;-70
2022/06/19 21:21:46;;;;;;;8.00;1.60;;;;;;;15.71;71.71;101161.28;20942997;28;20045;-69
2022/06/19 21:32:14;;;;;;;5.30;1.38;;;;;;;15.71;72.86;101198.09;20940887;28;20041;-68
2022/06/19 21:42:36;;;;;;;7.30;1.60;;;;;;;15.71;71.14;101192.81;20929582;28;20070;-70
2022/06/19 21:52:58;;;;;;;7.55;1.52;;;;;;;15.63;74.30;101153.16;20927406;28;20512;-68
2022/06/19 22:03:25;;;;;;;9.20;2.10;;;;;;;15.53;72.99;101153.06;20930540;28;20036;-71
2022/06/19 22:13:47;;;;;;;9.07;1.83;;;;;;;15.54;73.96;101125.00;20953185;28;20049;-71
2022/06/19 22:24:18;;;;;;;;;;;;;;;15.55;78.06;101195.00;20937686;28;20049;-69
2022/06/19 22:34:40;;;;;;;8.68;1.83;;;;;;;15.58;71.89;101223.63;20930169;28;20011;-68
2022/06/19 22:45:03;;;;;;;8.93;1.73;;;;;;;15.45;75.11;101157.25;20949697;28;20332;-68
2022/06/19 22:55:25;;;;;;;7.63;1.60;;;;;;;15.43;73.03;101161.78;20958319;28;20041;-68
2022/06/19 23:05:49;;;;;;;9.73;1.90;;;;;;;15.33;73.56;101147.72;20946448;28;20066;-68
2022/06/19 23:16:15;;;;;;;13.07;1.75;;;;;;;15.38;73.44;101178.88;20938513;28;20477;-69
2022/06/19 23:26:39;;;;;;;7.28;1.98;;;;;;;15.35;73.88;101172.06;20955237;28;20052;-68
2022/06/19 23:37:03;;;;;;;6.70;1.60;;;;;;;15.23;73.96;101183.50;20943831;28;20079;-68
2022/06/19 23:47:26;;;;;;;9.02;1.70;;;;;;;14.96;75.01;101185.66;20950359;28;20595;-68
2022/06/19 23:57:51;;;;;;;11.82;1.83;;;;;;;14.89;75.22;101160.00;20949639;28;20386;-68
